Time;durP1;ratioP1;P1;durP2;ratioP2;P2;SDS_P1;SDS_P2;PMS_P1;PMS_P2;Temp;Humidity;BMP_temperature;BMP_pressure;BME280_temperature;BME280_humidity;BME280_pressure;Samples;Min_cycle;Max_cycle;Signal;HPM_P1;HPM_P2
2023/10/27 00:02:22;;;;;;;9.47;8.77;;;;;;;15.87;90.67;91903.69;5057443;28;20312;-83
2023/10/27 00:04:47;;;;;;;10.87;9.90;;;;;;;15.96;90.50;91903.56;5066293;28;20194;-82
2023/10/27 00:07:13;;;;;;;10.67;9.87;;;;;;;16.06;89.77;91898.63;5069714;28;20221;-82
2023/10/27 00:09:39;;;;;;;10.00;9.20;;;;;;;15.79;91.06;91906.41;5071620;28;20182;-82
2023/10/27 00:12:05;;;;;;;9.87;9.17;;;;;;;15.90;90.15;91883.81;5069775;28;20347;-79
2023/10/27 00:14:31;;;;;;;9.73;8.93;;;;;;;15.94;90.09;91906.53;5073579;28;20213;-81
2023/10/27 00:16:58;;;;;;;10.13;9.30;;;;;;;15.60;91.59;91909.53;5069677;28;20228;-82
2023/10/27 00:19:23;;;;;;;10.80;9.80;;;;;;;15.60;91.48;91896.38;5074334;28;20237;-82
2023/10/27 00:21:49;;;;;;;10.63;9.93;;;;;;;15.72;91.49;91908.81;5078121;28;20224;-81
2023/10/27 00:24:14;;;;;;;10.57;9.53;;;;;;;15.79;90.76;91904.53;5070153;28;20189;-82
2023/10/27 00:26:40;;;;;;;11.07;10.00;;;;;;;15.66;91.61;91887.19;5069309;28;20190;-82
2023/10/27 00:29:05;;;;;;;11.03;10.23;;;;;;;15.62;92.36;91877.63;5069241;28;20190;-82
2023/10/27 00:31:30;;;;;;;10.40;9.43;;;;;;;15.61;92.22;91887.38;5069717;28;20196;-82
2023/10/27 00:33:56;;;;;;;10.63;9.77;;;;;;;15.66;92.95;91889.03;5069271;28;20225;-81
2023/10/27 00:36:22;;;;;;;11.43;9.53;;;;;;;15.46;93.39;91885.38;5070222;28;20192;-81
2023/10/27 00:38:49;;;;;;;10.20;9.20;;;;;;;15.65;93.04;91893.53;5072504;28;20224;-82
2023/10/27 00:41:14;;;;;;;11.07;9.97;;;;;;;15.60;93.56;91893.75;5083013;28;20193;-82
2023/10/27 00:43:39;;;;;;;10.23;9.43;;;;;;;15.53;93.85;91887.50;5065243;28;20221;-82
2023/10/27 00:46:05;;;;;;;10.33;9.53;;;;;;;15.50;93.94;91882.88;5067146;28;20185;-81
2023/10/27 00:48:31;;;;;;;10.90;9.90;;;;;;;15.52;94.56;91883.31;5072418;28;20234;-81
2023/10/27 00:50:57;;;;;;;10.00;9.23;;;;;;;15.40;94.33;91865.66;5070290;28;20228;-81
2023/10/27 00:53:23;;;;;;;10.03;9.13;;;;;;;15.26;95.22;91875.66;5068932;28;20233;-82
2023/10/27 00:55:49;;;;;;;10.90;9.83;;;;;;;15.32;95.41;91884.09;5069310;28;20189;-82
2023/10/27 00:58:15;;;;;;;10.40;9.63;;;;;;;15.32;95.11;91873.56;5068986;28;20232;-82
2023/10/27 01:00:42;;;;;;;10.47;9.77;;;;;;;15.23;95.75;91870.28;5068126;28;20253;-82
2023/10/27 01:03:07;;;;;;;10.03;9.07;;;;;;;15.21;95.25;91856.66;5056930;28;20225;-81
2023/10/27 01:05:32;;;;;;;10.43;9.53;;;;;;;15.29;94.07;91853.19;5062511;28;20174;-82
2023/10/27 01:07:59;;;;;;;11.47;10.40;;;;;;;15.40;92.92;91875.38;5057157;28;20236;-82
2023/10/27 01:10:25;;;;;;;10.73;9.63;;;;;;;15.64;87.94;91891.25;5069223;28;20191;-82
2023/10/27 01:12:51;;;;;;;9.60;8.93;;;;;;;15.63;89.68;91905.47;5068570;28;20761;-82
2023/10/27 01:15:17;;;;;;;12.23;11.00;;;;;;;15.89;90.57;91898.84;5069786;28;20192;-80
2023/10/27 01:17:43;;;;;;;10.33;9.53;;;;;;;15.76;90.51;91888.63;5064239;28;20272;-81
2023/10/27 01:20:09;;;;;;;10.83;9.73;;;;;;;15.88;91.19;91897.31;5069075;28;20249;-81
2023/10/27 01:22:44;;;;;;;12.13;10.17;;;;;;;15.83;91.30;91910.69;5072427;28;20235;-81
2023/10/27 01:25:09;;;;;;;11.40;9.87;;;;;;;15.41;93.67;91895.34;5069258;28;20188;-82
2023/10/27 01:27:35;;;;;;;11.10;10.10;;;;;;;15.44;94.15;91905.22;5068421;28;20221;-81
2023/10/27 01:30:00;;;;;;;11.97;9.97;;;;;;;15.32;95.32;91905.13;5069312;28;20177;-81
2023/10/27 01:32:26;;;;;;;10.53;9.50;;;;;;;15.43;94.81;91909.72;5060220;28;20748;-80
2023/10/27 01:34:51;;;;;;;9.97;9.07;;;;;;;15.09;97.63;91914.47;5069082;28;20229;-81
2023/10/27 01:37:17;;;;;;;11.07;10.33;;;;;;;15.25;96.76;91903.03;5068246;28;20251;-80
2023/10/27 01:39:44;;;;;;;10.97;9.90;;;;;;;15.36;96.29;91896.28;5080023;28;20181;-81
2023/10/27 01:42:10;;;;;;;10.23;9.53;;;;;;;15.04;98.17;91896.25;5080345;28;20216;-81
2023/10/27 01:44:35;;;;;;;11.30;10.23;;;;;;;14.85;100.00;91901.97;5069398;28;20245;-82
2023/10/27 01:47:01;;;;;;;10.60;9.43;;;;;;;15.01;99.91;91904.78;5070509;28;20258;-81
2023/10/27 01:49:26;;;;;;;11.97;10.77;;;;;;;14.76;100.00;91897.88;5069001;28;20201;-81
2023/10/27 01:51:52;;;;;;;10.77;9.53;;;;;;;14.99;100.00;91888.59;5064355;28;20222;-81
2023/10/27 01:54:17;;;;;;;15.70;11.53;;;;;;;14.80;100.00;91875.16;5072197;28;20212;-82
2023/10/27 01:56:42;;;;;;;13.87;11.10;;;;;;;14.81;99.18;91859.06;5071732;28;20192;-82
2023/10/27 01:59:08;;;;;;;12.50;10.17;;;;;;;15.12;100.00;91869.13;5072829;28;20791;-81
2023/10/27 02:01:33;;;;;;;11.13;10.33;;;;;;;15.15;97.64;91873.75;5071722;28;20190;-80
2023/10/27 02:03:58;;;;;;;10.83;9.83;;;;;;;15.39;95.58;91876.50;5072748;28;20216;-81
2023/10/27 02:06:26;;;;;;;10.73;9.70;;;;;;;15.68;90.83;91874.47;5076560;28;20181;-82
2023/10/27 02:08:51;;;;;;;9.87;9.27;;;;;;;15.75;89.60;91881.84;5071863;28;20229;-79
2023/10/27 02:11:17;;;;;;;10.33;9.63;;;;;;;16.00;87.63;91889.41;5072177;28;20582;-81
2023/10/27 02:13:43;;;;;;;10.37;9.67;;;;;;;16.18;85.04;91879.44;5066745;28;20303;-82
2023/10/27 02:16:08;;;;;;;10.43;9.57;;;;;;;16.29;85.07;91883.16;5059839;28;20186;-81
2023/10/27 02:18:33;;;;;;;10.80;10.00;;;;;;;16.57;83.00;91875.38;5058182;28;20317;-82
2023/10/27 02:20:59;;;;;;;11.33;10.00;;;;;;;16.67;81.39;91857.22;5075581;28;20185;-82
2023/10/27 02:23:25;;;;;;;10.47;9.53;;;;;;;16.80;80.16;91853.47;5071585;28;20225;-80
2023/10/27 02:25:52;;;;;;;10.30;9.40;;;;;;;17.02;78.11;91866.13;5071787;28;20181;-82
2023/10/27 02:28:18;;;;;;;10.07;9.37;;;;;;;17.13;77.81;91863.78;5071544;28;20232;-82
2023/10/27 02:30:43;;;;;;;10.40;9.60;;;;;;;17.02;78.57;91850.31;5072296;28;20182;-82
2023/10/27 02:33:09;;;;;;;10.60;9.77;;;;;;;17.06;78.46;91867.00;5059068;28;20222;-83
2023/10/27 02:35:34;;;;;;;10.57;9.63;;;;;;;16.72;83.40;91867.53;5059444;28;20281;-81
2023/10/27 02:38:00;;;;;;;10.67;9.77;;;;;;;16.18;87.93;91874.16;5065850;28;20214;-81
2023/10/27 02:40:25;;;;;;;11.93;10.83;;;;;;;16.08;88.77;91871.97;5065698;28;20217;-81
2023/10/27 02:42:50;;;;;;;11.37;10.37;;;;;;;15.93;89.32;91856.84;5067978;28;20218;-82
2023/10/27 02:45:16;;;;;;;11.73;10.57;;;;;;;15.84;90.96;91870.09;5063426;28;20255;-82
2023/10/27 02:47:41;;;;;;;10.27;9.40;;;;;;;15.84;91.07;91870.09;5070070;28;20232;-81
2023/10/27 02:50:07;;;;;;;11.10;9.93;;;;;;;16.01;89.47;91861.22;5091788;28;20617;-81
2023/10/27 02:52:32;;;;;;;10.70;9.57;;;;;;;16.17;88.56;91861.34;5071485;28;20220;-82
2023/10/27 02:54:58;;;;;;;11.30;9.73;;;;;;;16.13;88.74;91865.72;5071273;28;20220;-82
2023/10/27 02:57:23;;;;;;;10.47;9.57;;;;;;;16.06;89.72;91871.56;5070335;28;20673;-82
2023/10/27 02:59:49;;;;;;;12.90;10.50;;;;;;;15.90;90.72;91875.91;5071091;28;20213;-82
2023/10/27 03:02:14;;;;;;;11.07;10.23;;;;;;;15.84;90.86;91862.19;5069928;28;20680;-82
2023/10/27 03:04:40;;;;;;;11.23;10.07;;;;;;;15.88;91.17;91875.47;5081704;28;20702;-81
2023/10/27 03:07:05;;;;;;;15.90;10.87;;;;;;;15.69;92.63;91872.59;5076379;28;20222;-81
2023/10/27 03:09:30;;;;;;;11.37;9.97;;;;;;;15.60;93.21;91864.03;5069407;28;20299;-82
2023/10/27 03:11:56;;;;;;;13.00;10.93;;;;;;;15.57;93.51;91875.97;5062330;28;20226;-83
2023/10/27 03:14:21;;;;;;;10.97;9.77;;;;;;;15.65;93.81;91869.88;5074330;28;20224;-82
2023/10/27 03:16:46;;;;;;;11.20;10.40;;;;;;;15.19;96.13;91864.88;5072926;28;20238;-83
2023/10/27 03:19:12;;;;;;;11.67;9.73;;;;;;;15.04;98.09;91867.34;5051286;28;20195;-83
2023/10/27 03:21:37;;;;;;;11.57;10.43;;;;;;;14.82;98.05;91812.53;5050022;28;20258;-82
2023/10/27 03:24:04;;;;;;;14.20;10.73;;;;;;;15.13;96.76;91847.03;5050856;28;20186;-81
2023/10/27 03:26:30;;;;;;;12.43;9.10;;;;;;;15.35;96.29;91865.03;5050399;28;20178;-82
2023/10/27 03:28:55;;;;;;;12.97;10.50;;;;;;;15.41;95.28;91840.13;5050946;28;20196;-81
2023/10/27 03:31:21;;;;;;;13.87;9.60;;;;;;;15.16;97.64;91854.25;5047392;28;20249;-82
2023/10/27 03:33:46;;;;;;;10.97;9.97;;;;;;;14.86;100.00;91855.47;5050171;28;20240;-82
2023/10/27 03:36:11;;;;;;;11.37;9.80;;;;;;;14.82;100.00;91867.72;5047974;28;20209;-81
2023/10/27 03:38:37;;;;;;;11.50;10.57;;;;;;;14.64;100.00;91868.91;5049638;28;20214;-83
2023/10/27 03:41:02;;;;;;;14.77;10.17;;;;;;;14.55;100.00;91855.09;5050527;28;20178;-83
2023/10/27 03:43:29;;;;;;;12.70;11.47;;;;;;;14.65;100.00;91846.81;5066128;28;20233;-77
2023/10/27 03:45:54;;;;;;;11.10;10.27;;;;;;;14.66;100.00;91851.00;5070114;28;20182;-78
2023/10/27 03:48:19;;;;;;;12.20;11.17;;;;;;;14.74;100.00;91858.78;5068067;28;20534;-79
2023/10/27 03:50:45;;;;;;;11.07;10.00;;;;;;;14.62;100.00;91813.31;5063361;28;20212;-76
2023/10/27 03:53:10;;;;;;;12.60;10.63;;;;;;;14.85;100.00;91848.69;5063591;28;20221;-78
2023/10/27 03:55:36;;;;;;;11.50;10.60;;;;;;;14.79;100.00;91853.34;5063515;28;20193;-78
2023/10/27 03:58:14;;;;;;;12.20;11.20;;;;;;;14.71;100.00;91845.53;5068427;28;20241;-76
2023/10/27 04:00:40;;;;;;;11.37;10.27;;;;;;;14.77;100.00;91846.88;5068986;28;20189;-78
2023/10/27 04:03:05;;;;;;;14.67;11.37;;;;;;;14.58;100.00;91823.69;5057922;28;20254;-81
2023/10/27 04:05:30;;;;;;;12.30;11.30;;;;;;;14.73;100.00;91853.84;5063604;28;20168;-79
2023/10/27 04:07:56;;;;;;;11.43;10.33;;;;;;;14.74;100.00;91852.78;5068227;28;20225;-82
2023/10/27 04:10:21;;;;;;;15.67;11.27;;;;;;;14.76;100.00;91846.09;5068127;28;20177;-74
2023/10/27 04:12:47;;;;;;;11.37;10.13;;;;;;;14.70;100.00;91829.00;5067307;28;20245;-76
2023/10/27 04:15:12;;;;;;;12.77;11.53;;;;;;;14.72;100.00;91824.22;5062888;28;20260;-72
2023/10/27 04:17:38;;;;;;;12.83;11.20;;;;;;;14.61;100.00;91807.28;5063387;28;20240;-72
2023/10/27 04:20:04;;;;;;;12.47;11.17;;;;;;;14.47;100.00;91801.53;5067522;28;20190;-72
2023/10/27 04:22:30;;;;;;;15.40;10.97;;;;;;;14.48;100.00;91803.84;5059017;28;20248;-78
2023/10/27 04:24:55;;;;;;;19.97;10.93;;;;;;;14.45;100.00;91793.97;5066891;28;20193;-74
2023/10/27 04:27:21;;;;;;;12.87;10.37;;;;;;;14.43;100.00;91784.88;5068107;28;20284;-73
2023/10/27 04:29:46;;;;;;;11.73;10.63;;;;;;;14.04;100.00;91780.81;5068375;28;20193;-78
2023/10/27 04:32:15;;;;;;;13.00;11.00;;;;;;;14.24;100.00;91781.94;5068386;28;20229;-79
2023/10/27 04:34:42;;;;;;;16.70;10.67;;;;;;;14.19;100.00;91777.59;5055303;28;20244;-79
2023/10/27 04:37:09;;;;;;;13.17;10.70;;;;;;;14.23;100.00;91783.00;5063152;28;20229;-75
2023/10/27 04:39:34;;;;;;;12.43;10.33;;;;;;;14.34;100.00;91784.97;5068124;28;20201;-75
2023/10/27 04:42:00;;;;;;;14.23;10.30;;;;;;;14.18;100.00;91786.59;5067144;28;20235;-75
2023/10/27 04:44:25;;;;;;;11.73;10.53;;;;;;;14.10;100.00;91797.16;5066664;28;20193;-76
2023/10/27 04:46:51;;;;;;;13.60;10.07;;;;;;;14.10;100.00;91791.91;5070169;28;20232;-75
2023/10/27 04:49:17;;;;;;;12.23;10.10;;;;;;;14.20;100.00;91802.78;5069341;28;20177;-75
2023/10/27 04:51:42;;;;;;;15.53;10.53;;;;;;;14.20;100.00;91799.38;5062958;28;20836;-76
2023/10/27 04:54:08;;;;;;;12.03;10.83;;;;;;;14.23;100.00;91811.88;5067053;28;20209;-76
2023/10/27 04:56:33;;;;;;;16.67;10.47;;;;;;;14.21;100.00;91812.19;5062347;28;20181;-75
2023/10/27 04:58:59;;;;;;;17.30;10.27;;;;;;;14.16;100.00;91798.50;5060604;28;20174;-76
2023/10/27 05:01:25;;;;;;;12.37;11.47;;;;;;;14.28;100.00;91815.13;5065998;28;20240;-77
2023/10/27 05:03:51;;;;;;;15.70;11.43;;;;;;;14.36;100.00;91822.19;5058427;28;20217;-75
2023/10/27 05:06:17;;;;;;;16.03;10.30;;;;;;;14.14;100.00;91803.28;5050544;28;20201;-76
2023/10/27 05:08:42;;;;;;;11.50;10.57;;;;;;;14.15;100.00;91799.56;5049819;28;20243;-76
2023/10/27 05:11:08;;;;;;;11.93;10.70;;;;;;;14.37;100.00;91813.19;5034511;28;20219;-76
2023/10/27 05:13:33;;;;;;;13.47;10.20;;;;;;;14.45;100.00;91806.34;5044980;28;20222;-75
2023/10/27 05:15:59;;;;;;;12.37;11.23;;;;;;;14.46;100.00;91795.50;5041067;28;20222;-76
2023/10/27 05:18:25;;;;;;;17.07;10.17;;;;;;;14.35;100.00;91801.47;5038562;28;20233;-76
2023/10/27 05:20:50;;;;;;;11.07;10.03;;;;;;;14.45;100.00;91785.31;5054539;28;20198;-76
2023/10/27 05:23:16;;;;;;;11.50;10.33;;;;;;;14.62;100.00;91787.03;5056946;28;20217;-76
2023/10/27 05:25:41;;;;;;;12.53;10.63;;;;;;;14.48;100.00;91792.56;5067605;28;20189;-76
2023/10/27 05:28:08;;;;;;;12.87;11.13;;;;;;;14.73;100.00;91798.69;5070460;28;20270;-76
2023/10/27 05:30:37;;;;;;;15.57;9.70;;;;;;;14.77;100.00;91786.44;5070730;28;20185;-75
2023/10/27 05:33:02;;;;;;;11.67;10.57;;;;;;;14.87;100.00;91797.31;5071138;28;20221;-75
2023/10/27 05:35:28;;;;;;;12.43;10.63;;;;;;;14.69;100.00;91801.22;5071909;28;20232;-76
2023/10/27 05:37:53;;;;;;;14.90;11.37;;;;;;;14.95;100.00;91791.22;5071199;28;20307;-75
2023/10/27 05:40:19;;;;;;;12.47;11.30;;;;;;;14.99;100.00;91794.72;5072168;28;20185;-75
2023/10/27 05:42:44;;;;;;;13.30;10.47;;;;;;;14.99;100.00;91786.84;5077395;28;20232;-75
2023/10/27 05:45:13;;;;;;;11.37;10.30;;;;;;;15.16;100.00;91801.69;5071118;28;20209;-75
2023/10/27 05:47:39;;;;;;;13.77;10.40;;;;;;;15.22;100.00;91801.13;5065195;28;20233;-75
2023/10/27 05:50:08;;;;;;;14.23;10.40;;;;;;;15.24;100.00;91798.16;5066126;28;20261;-76
2023/10/27 05:52:34;;;;;;;14.83;9.93;;;;;;;15.33;100.00;91777.81;5071527;28;20322;-75
2023/10/27 05:55:00;;;;;;;13.77;10.70;;;;;;;15.46;100.00;91800.44;5064088;28;20209;-76
2023/10/27 05:57:25;;;;;;;16.10;10.53;;;;;;;15.50;100.00;91812.59;5053379;28;20222;-76
2023/10/27 05:59:51;;;;;;;12.40;10.77;;;;;;;15.64;100.00;91813.06;5055400;28;20195;-76
2023/10/27 06:02:16;;;;;;;11.77;10.13;;;;;;;15.45;99.92;91806.78;5059057;28;20225;-77
2023/10/27 06:04:42;;;;;;;11.03;9.90;;;;;;;15.24;100.00;91830.50;5055781;28;20199;-77
2023/10/27 06:07:07;;;;;;;11.30;10.37;;;;;;;15.27;100.00;91819.34;5058924;28;21800;-77
2023/10/27 06:09:34;;;;;;;11.83;10.73;;;;;;;15.55;100.00;91845.81;5063669;28;20216;-76
2023/10/27 06:12:00;;;;;;;17.17;10.87;;;;;;;15.56;98.38;91836.84;5063721;28;20262;-76
2023/10/27 06:14:25;;;;;;;13.97;10.40;;;;;;;15.79;98.32;91844.00;5079494;28;20239;-76
2023/10/27 06:16:51;;;;;;;11.77;10.67;;;;;;;15.91;98.37;91841.38;5067714;28;20862;-85
2023/10/27 06:19:16;;;;;;;12.17;9.53;;;;;;;15.59;98.29;91821.19;5073929;28;20173;-84
2023/10/27 06:21:43;;;;;;;11.17;10.20;;;;;;;15.68;98.24;91826.34;5071930;28;20178;-84
2023/10/27 06:24:10;;;;;;;10.73;9.70;;;;;;;16.05;96.46;91839.19;5052777;28;20202;-81
2023/10/27 06:26:35;;;;;;;14.57;9.90;;;;;;;16.01;95.51;91840.94;5070291;28;20193;-80
2023/10/27 06:29:01;;;;;;;14.13;10.30;;;;;;;16.13;94.35;91855.94;5065983;28;20174;-81
2023/10/27 06:31:26;;;;;;;11.33;10.33;;;;;;;16.37;93.75;91860.44;5069588;28;20243;-74
2023/10/27 06:33:52;;;;;;;10.97;9.97;;;;;;;16.61;90.95;91852.50;5071482;28;20209;-81
2023/10/27 06:36:18;;;;;;;10.17;9.33;;;;;;;16.80;89.06;91864.00;5072515;28;20216;-80
2023/10/27 06:38:43;;;;;;;11.63;9.57;;;;;;;16.53;90.54;91880.53;5066743;28;20244;-82
2023/10/27 06:41:08;;;;;;;10.80;9.87;;;;;;;16.67;91.14;91856.47;5080486;28;20213;-83
2023/10/27 06:43:34;;;;;;;10.17;9.13;;;;;;;16.97;87.69;91821.53;5056197;28;20226;-77
2023/10/27 06:45:59;;;;;;;10.33;9.33;;;;;;;16.92;88.10;91834.97;5048809;28;20187;-81
2023/10/27 06:48:25;;;;;;;10.07;8.97;;;;;;;16.57;91.31;91828.72;5046173;28;20253;-81
2023/10/27 06:50:50;;;;;;;10.67;9.53;;;;;;;16.75;90.65;91840.50;5050438;28;20189;-82
2023/10/27 06:53:16;;;;;;;13.13;9.27;;;;;;;16.89;90.14;91830.34;5050020;28;20820;-82
2023/10/27 06:55:41;;;;;;;10.83;9.97;;;;;;;16.79;89.86;91820.31;5050761;28;20257;-80
2023/10/27 06:58:07;;;;;;;12.37;10.90;;;;;;;16.72;90.36;91835.13;5049869;28;20230;-81
2023/10/27 07:00:33;;;;;;;10.07;9.10;;;;;;;16.85;89.27;91834.78;5047614;28;20191;-83
2023/10/27 07:02:59;;;;;;;11.87;9.20;;;;;;;17.05;87.40;91849.63;5049879;28;20225;-82
2023/10/27 07:05:25;;;;;;;9.90;9.07;;;;;;;17.07;86.58;91851.94;5037581;28;20181;-81
2023/10/27 07:07:50;;;;;;;12.40;9.47;;;;;;;16.83;85.42;91838.84;5050946;28;20214;-81
2023/10/27 07:10:16;;;;;;;10.00;9.33;;;;;;;17.12;84.17;91839.28;5044854;28;20183;-83
2023/10/27 07:12:43;;;;;;;13.50;9.17;;;;;;;17.09;84.78;91824.13;5043166;28;20241;-86
2023/10/27 07:15:09;;;;;;;10.17;9.20;;;;;;;17.23;84.88;91821.84;5034333;28;20210;-83
2023/10/27 07:17:35;;;;;;;13.27;9.60;;;;;;;17.47;83.05;91828.91;5056291;28;20289;-84
2023/10/27 07:20:00;;;;;;;10.57;9.63;;;;;;;17.46;82.91;91857.16;5045758;28;20198;-84
2023/10/27 07:22:26;;;;;;;15.07;10.37;;;;;;;17.21;86.68;91862.88;5035057;28;20222;-83
2023/10/27 07:24:51;;;;;;;9.73;8.83;;;;;;;17.16;85.98;91855.19;5036418;28;20297;-81
2023/10/27 07:27:17;;;;;;;11.17;9.30;;;;;;;17.48;83.81;91836.47;5043902;28;20227;-85
2023/10/27 07:29:42;;;;;;;14.20;10.40;;;;;;;17.52;83.15;91847.91;5041591;28;20193;-84
2023/10/27 07:32:07;;;;;;;11.10;9.97;;;;;;;17.38;85.40;91844.88;5046280;28;20272;-81
2023/10/27 07:34:33;;;;;;;14.50;10.27;;;;;;;17.43;84.65;91849.13;5043737;28;20317;-85
2023/10/27 07:36:58;;;;;;;10.53;9.47;;;;;;;17.57;84.01;91836.34;5036605;28;20226;-82
2023/10/27 07:39:24;;;;;;;10.23;9.43;;;;;;;17.78;81.94;91854.56;5043751;28;20220;-86
2023/10/27 07:41:52;;;;;;;10.23;9.43;;;;;;;17.54;84.69;91848.31;5047686;28;20261;-83
2023/10/27 07:44:18;;;;;;;10.93;9.87;;;;;;;17.53;84.42;91836.25;5035459;28;20322;-81
2023/10/27 07:46:43;;;;;;;10.70;9.73;;;;;;;17.41;84.12;91828.38;5041095;28;20198;-85
2023/10/27 07:49:09;;;;;;;10.27;9.40;;;;;;;17.61;83.93;91845.09;5069159;28;20975;-82
2023/10/27 07:51:34;;;;;;;9.87;8.90;;;;;;;17.68;81.86;91841.88;5068083;28;20186;-83
2023/10/27 07:54:00;;;;;;;15.80;10.27;;;;;;;17.31;84.53;91846.53;5073931;28;20213;-83
2023/10/27 07:56:25;;;;;;;14.47;9.83;;;;;;;17.89;81.24;91855.56;5071531;28;20186;-84
2023/10/27 07:58:51;;;;;;;9.90;8.93;;;;;;;18.14;79.74;91849.00;5051284;28;20217;-84
2023/10/27 08:01:17;;;;;;;9.67;8.77;;;;;;;18.30;78.14;91847.13;5047695;28;20221;-80
2023/10/27 08:03:42;;;;;;;9.93;9.13;;;;;;;18.38;78.25;91848.84;5049251;28;20286;-78
2023/10/27 08:06:08;;;;;;;9.20;8.60;;;;;;;18.39;76.21;91845.09;5048376;28;20202;-81
2023/10/27 08:08:37;;;;;;;10.00;9.30;;;;;;;18.48;76.06;91830.56;5043501;28;20834;-79
2023/10/27 08:11:06;;;;;;;10.30;9.60;;;;;;;18.35;77.40;91844.22;5047655;28;20947;-81
2023/10/27 08:13:32;;;;;;;15.57;9.20;;;;;;;18.57;76.50;91825.84;5041899;28;20218;-76
2023/10/27 08:15:59;;;;;;;11.67;9.63;;;;;;;18.46;76.77;91797.69;5046027;28;20198;-76
2023/10/27 08:18:24;;;;;;;10.13;9.10;;;;;;;17.86;81.23;91829.84;5063919;28;20244;-76
2023/10/27 08:20:51;;;;;;;13.60;10.80;;;;;;;17.83;79.26;91822.63;5084454;28;20181;-76
2023/10/27 08:23:17;;;;;;;11.50;10.13;;;;;;;18.53;77.23;91826.91;5068480;28;20292;-75
2023/10/27 08:25:42;;;;;;;11.47;10.07;;;;;;;18.56;76.58;91803.19;5068790;28;20189;-74
2023/10/27 08:28:08;;;;;;;13.37;10.30;;;;;;;18.50;76.77;91812.50;5064911;28;20220;-81
2023/10/27 08:30:33;;;;;;;11.83;10.67;;;;;;;18.21;78.63;91805.03;5068504;28;20174;-78
2023/10/27 08:32:59;;;;;;;14.20;10.47;;;;;;;18.03;80.26;91811.00;5068393;28;20225;-79
2023/10/27 08:35:24;;;;;;;14.33;11.23;;;;;;;17.96;80.37;91808.22;5068382;28;20256;-80
2023/10/27 08:37:49;;;;;;;11.73;10.53;;;;;;;18.26;79.61;91820.63;5067190;28;20286;-80
2023/10/27 08:40:15;;;;;;;11.67;9.90;;;;;;;18.82;76.94;91813.91;5066210;28;20245;-77
2023/10/27 08:42:43;;;;;;;10.37;9.47;;;;;;;18.56;77.43;91805.06;5068271;28;20224;-78
2023/10/27 08:45:08;;;;;;;12.10;10.63;;;;;;;18.97;76.08;91801.75;5062424;28;20197;-78
2023/10/27 08:47:36;;;;;;;10.77;9.80;;;;;;;18.92;74.82;91823.19;5068128;28;20911;-78
2023/10/27 08:50:03;;;;;;;10.00;9.30;;;;;;;18.84;74.86;91816.97;5064790;28;20201;-77
2023/10/27 08:52:29;;;;;;;11.00;9.90;;;;;;;18.74;76.12;91836.03;5068051;28;20214;-78
2023/10/27 08:54:54;;;;;;;11.60;10.60;;;;;;;18.63;78.16;91823.72;5076383;28;20243;-80
2023/10/27 08:57:20;;;;;;;11.47;10.60;;;;;;;19.01;76.28;91821.09;5058001;28;20223;-78
2023/10/27 08:59:46;;;;;;;12.67;11.47;;;;;;;19.04;75.75;91825.69;5065009;28;20324;-78
2023/10/27 09:02:12;;;;;;;12.07;10.17;;;;;;;18.90;76.97;91822.75;5053688;28;20209;-79
2023/10/27 09:04:43;;;;;;;10.80;9.90;;;;;;;18.99;77.49;91839.19;5074286;28;20191;-77
2023/10/27 09:07:08;;;;;;;11.13;9.47;;;;;;;18.84;77.59;91814.34;5071477;28;20231;-77
2023/10/27 09:09:34;;;;;;;11.67;10.63;;;;;;;19.08;76.56;91806.09;5072447;28;20191;-77
2023/10/27 09:12:00;;;;;;;16.27;9.77;;;;;;;19.23;74.56;91812.44;5071869;28;20246;-77
2023/10/27 09:14:31;;;;;;;11.93;10.50;;;;;;;19.42;74.18;91819.63;5072352;28;20270;-79
2023/10/27 09:17:05;;;;;;;11.77;9.70;;;;;;;19.68;72.53;91823.13;5072582;28;20241;-77
2023/10/27 09:19:32;;;;;;;11.47;9.97;;;;;;;19.65;74.29;91797.34;5063118;28;20191;-76
2023/10/27 09:21:58;;;;;;;10.33;9.63;;;;;;;19.32;70.48;91813.00;5070933;28;20258;-76
2023/10/27 09:24:28;;;;;;;9.83;8.90;;;;;;;19.77;69.22;91805.09;5065665;28;20192;-76
2023/10/27 09:26:55;;;;;;;10.37;9.27;;;;;;;20.01;68.56;91790.72;5067127;28;20237;-75
2023/10/27 09:29:21;;;;;;;12.90;9.77;;;;;;;20.13;66.96;91809.88;5061193;28;20199;-76
2023/10/27 09:31:47;;;;;;;9.43;8.67;;;;;;;20.19;66.23;91805.78;5064449;28;20270;-75
2023/10/27 09:34:19;;;;;;;9.47;8.53;;;;;;;19.90;67.17;91793.22;5061649;28;20215;-76
2023/10/27 09:36:48;;;;;;;11.53;9.37;;;;;;;19.74;67.79;91774.03;5070161;28;20245;-81
2023/10/27 09:39:16;;;;;;;9.30;8.50;;;;;;;20.19;65.12;91768.69;5071555;28;20299;-79
2023/10/27 09:41:47;;;;;;;9.97;8.30;;;;;;;20.40;63.44;91747.78;5079408;28;20253;-76
2023/10/27 09:44:18;;;;;;;9.70;8.70;;;;;;;20.45;64.09;91744.81;5067001;28;20181;-77
2023/10/27 09:46:51;;;;;;;9.07;8.37;;;;;;;20.67;65.43;91751.91;5071308;28;20262;-76
2023/10/27 09:49:24;;;;;;;9.40;8.37;;;;;;;20.95;63.15;91742.75;5069283;28;20211;-79
2023/10/27 09:51:57;;;;;;;8.90;8.27;;;;;;;21.09;60.70;91756.97;5066985;28;20262;-78
2023/10/27 09:54:22;;;;;;;9.33;8.57;;;;;;;21.22;60.76;91765.44;5062761;28;20218;-78
2023/10/27 09:56:48;;;;;;;8.30;7.72;;;;;;;20.53;61.75;91750.94;5067140;28;20228;-78
2023/10/27 09:59:13;;;;;;;11.18;8.68;;;;;;;20.12;64.64;91715.56;5071798;28;20183;-79
2023/10/27 10:01:39;;;;;;;9.97;8.77;;;;;;;20.27;65.08;91738.50;5067086;28;20196;-79
2023/10/27 10:04:05;;;;;;;8.90;8.30;;;;;;;20.14;65.17;91750.44;5071725;28;20207;-78
2023/10/27 10:06:32;;;;;;;9.50;8.70;;;;;;;20.17;65.83;91733.81;5071140;28;20805;-78
2023/10/27 10:09:14;;;;;;;9.47;8.67;;;;;;;20.09;63.64;91734.06;5067123;28;20197;-78
2023/10/27 10:11:55;;;;;;;8.40;7.57;;;;;;;19.98;63.75;91747.16;5068529;28;20197;-79
2023/10/27 10:14:43;;;;;;;8.83;8.23;;;;;;;20.09;63.83;91748.09;5064280;28;20231;-76
2023/10/27 10:17:09;;;;;;;11.67;8.03;;;;;;;20.11;64.83;91753.78;5063420;28;20246;-78
2023/10/27 10:19:51;;;;;;;9.10;8.20;;;;;;;20.11;64.76;91756.41;5072999;28;20193;-79
2023/10/27 10:22:38;;;;;;;9.40;8.90;;;;;;;20.31;65.54;91765.81;5060648;28;20224;-78
2023/10/27 10:25:25;;;;;;;8.27;7.77;;;;;;;20.19;63.84;91757.31;5062576;28;20248;-82
2023/10/27 10:28:09;;;;;;;9.00;8.40;;;;;;;20.22;60.60;91761.91;5070250;28;20237;-76
2023/10/27 10:30:42;;;;;;;8.57;8.07;;;;;;;20.32;60.48;91764.72;5070812;28;20206;-78
2023/10/27 10:33:16;;;;;;;8.30;7.90;;;;;;;20.24;61.35;91744.53;5063646;28;20228;-79
2023/10/27 10:35:46;;;;;;;9.00;8.20;;;;;;;20.32;61.53;91738.19;5066807;28;20219;-80
2023/10/27 10:38:35;;;;;;;8.93;7.40;;;;;;;20.69;60.96;91747.00;5079557;28;20223;-79
2023/10/27 10:41:01;;;;;;;9.00;8.13;;;;;;;20.63;59.38;91718.50;5060083;28;20193;-77
2023/10/27 10:43:33;;;;;;;8.38;7.82;;;;;;;20.57;59.28;91704.81;5056659;28;20266;-79
2023/10/27 10:46:05;;;;;;;8.60;8.17;;;;;;;20.99;57.94;91695.81;5070856;28;20176;-79
2023/10/27 10:48:32;;;;;;;9.48;8.70;;;;;;;21.34;56.93;91717.41;5058066;28;20236;-75
2023/10/27 10:51:11;;;;;;;8.40;7.80;;;;;;;21.49;57.13;91729.69;5063292;28;20174;-77
2023/10/27 10:53:37;;;;;;;8.75;7.93;;;;;;;21.46;59.01;91756.97;5069638;28;20224;-76
2023/10/27 10:56:02;;;;;;;8.75;8.18;;;;;;;21.47;55.98;91723.97;5075019;28;20288;-76
2023/10/27 10:58:30;;;;;;;8.90;8.20;;;;;;;21.60;56.57;91741.16;5068944;28;20224;-81
2023/10/27 11:00:57;;;;;;;8.55;8.00;;;;;;;21.82;54.41;91758.84;5063733;28;20185;-75
2023/10/27 11:03:25;;;;;;;8.63;7.88;;;;;;;21.46;56.48;91743.69;5067420;28;20287;-77
2023/10/27 11:05:58;;;;;;;9.32;8.57;;;;;;;21.62;56.65;91741.56;5059602;28;20186;-76
2023/10/27 11:08:25;;;;;;;8.98;8.32;;;;;;;20.99;57.83;91717.81;5066236;28;20317;-76
2023/10/27 11:11:08;;;;;;;9.15;8.45;;;;;;;20.78;58.68;91700.88;5062350;28;20196;-76
2023/10/27 11:13:43;;;;;;;8.35;7.80;;;;;;;21.07;57.41;91705.38;5068108;28;20236;-76
2023/10/27 11:16:22;;;;;;;8.38;7.82;;;;;;;20.98;57.68;91686.34;5059258;28;20199;-75
2023/10/27 11:18:49;;;;;;;8.55;8.02;;;;;;;21.31;56.54;91688.94;5065925;28;20243;-74
2023/10/27 11:21:18;;;;;;;9.52;8.70;;;;;;;21.16;58.37;91708.50;5063333;28;20216;-75